Bridgeport, NE

11:19 AM MDT on August 30, 2014 (GMT -0600)
Alliance Municipal | Change Station
CLOSE
Current Station
Airport
Location: Alliance,
Elevation: 3930 ft
Nearby Weather Stations

Elev 3930 ft 42.06 °N, 102.80 °W | Updated 26 minutes ago

Clear
Clear
77 °F
Feels Like 77 °F
N
20
Wind Variable Wind from South
Gusts 25 mph

Today
High -- | Low -- °F
--% Chance of Precip.
Yesterday
High -- | Low -- °F
Precip. -- in
6:16 AM 7:28 PM
Waxing Crescent, 23% visible
Pressure 29.84 in
Visibility 10.0 miles
Clouds Clear
Dew Point 56 °F
Humidity 48%
Rainfall 0.00 in
Snow Depth Not available.
UV 7 out of 12
Pollen 9.80 out of 12
Air Quality Not available.
Flu Activity Not available.
METAR KAIA 301653Z AUTO 18017G22KT 10SM CLR 25/13 A2995 RMK AO2 SLP105 T02500133

More Conditions Fewer Conditions

Pressure 29.84 in
Visibility 10.0 miles
Clouds Clear
Dew Point 56 °F
Humidity 48%
Rainfall 0.00 in
Snow Depth Not available.
UV 7 out of 12
Pollen 9.80 out of 12
Air Quality Not available.
Flu Activity Not available.
METAR KAIA 301653Z AUTO 18017G22KT 10SM CLR 25/13 A2995 RMK AO2 SLP105 T02500133

More Conditions Fewer Conditions

10-Day Weather Forecast

Almanac

Astronomy

Aug. 30, 2014 Rise Set
Actual Time 6:16 AM MDT 7:28 PM MDT
Civil Twilight 5:47 AM MDT 7:57 PM MDT
Nautical Twilight 5:13 AM MDT 8:31 PM MDT
Astronomical Twilight 4:36 AM MDT 9:07 PM MDT
Moon 11:10 AM MDT 9:59 PM MDT
Length of Visible Light 14h 09m
Length of Day
13h 12m
Tomorrow will be 2m 41s shorter.
Waxing Crescent, 23% of the Moon is Illuminated
Today
Waxing Crescent
Sep 2
First Quarter
Sep 8
Full
Sep 15
Last Quarter
Sep 24
New

Today's Extremes

State Highs State Lows

Community

WunderPhotos

Upload Photos

1,748,576 photos uploaded!

WunderBlogs® & News

Nearby

Snow Depth

Station Depth Elevation
No new snow has been reported.

Earthquake Activity

City Distance Mag. Time & Date
No recent earthquake activity has been reported nearby.
Minimum magnitude displayed is 2.5.

Coastal Water Temperatures

Place Temperature
No Stations Reporting

Nearby Weather Stations